createdAt,value
2022-11-24T00:02:19.717Z,7.42
2022-11-24T00:04:47.538Z,7.46
2022-11-24T00:07:15.413Z,7.46
2022-11-24T00:09:43.246Z,7.49
2022-11-24T00:12:10.982Z,7.51
2022-11-24T00:14:38.743Z,7.51
2022-11-24T00:17:06.596Z,7.52
2022-11-24T00:19:34.400Z,7.54
2022-11-24T00:22:02.219Z,7.54
2022-11-24T00:24:29.917Z,7.54
2022-11-24T00:26:57.809Z,7.56
2022-11-24T00:29:25.592Z,7.58
2022-11-24T00:31:53.335Z,7.60
2022-11-24T00:34:21.355Z,7.61
2022-11-24T00:36:49.240Z,7.62
2022-11-24T00:39:17.195Z,7.62
2022-11-24T00:41:45.198Z,7.64
2022-11-24T00:44:12.894Z,7.64
2022-11-24T00:46:40.754Z,7.67
2022-11-24T00:49:08.745Z,7.65
2022-11-24T00:51:36.709Z,7.66
2022-11-24T00:54:04.709Z,7.68
2022-11-24T00:56:32.635Z,7.68
2022-11-24T00:59:05.075Z,7.66
2022-11-24T01:01:32.821Z,7.62
2022-11-24T01:04:05.312Z,7.60
2022-11-24T01:06:33.730Z,7.58
2022-11-24T01:09:01.578Z,7.59
2022-11-24T01:11:56.504Z,7.59
2022-11-24T01:14:24.771Z,7.61
2022-11-24T01:16:52.707Z,7.60
2022-11-24T01:19:23.174Z,7.58
2022-11-24T01:21:51.307Z,7.56
2022-11-24T01:24:19.165Z,7.59
2022-11-24T01:26:47.046Z,7.56
2022-11-24T01:29:15.131Z,7.49
2022-11-24T01:31:43.047Z,7.49
2022-11-24T01:34:10.999Z,7.49
2022-11-24T01:36:43.527Z,7.49
2022-11-24T01:39:11.337Z,7.46
2022-11-24T01:41:39.137Z,7.47
2022-11-24T01:44:45.667Z,7.48
2022-11-24T01:47:13.415Z,7.51
2022-11-24T01:49:44.099Z,7.51
2022-11-24T01:52:17.369Z,7.49
2022-11-24T01:54:56.254Z,7.50
2022-11-24T01:57:26.340Z,7.54
2022-11-24T02:00:09.845Z,7.50
2022-11-24T02:02:37.679Z,7.50
2022-11-24T02:05:09.480Z,7.51
2022-11-24T02:07:37.358Z,7.44
2022-11-24T02:10:13.618Z,7.43
2022-11-24T02:12:45.037Z,7.45
2022-11-24T02:15:14.419Z,7.48
2022-11-24T02:17:42.168Z,7.46
2022-11-24T02:20:10.816Z,7.40
2022-11-24T02:22:56.165Z,7.39
2022-11-24T02:25:23.948Z,7.35
2022-11-24T02:27:54.044Z,7.29
2022-11-24T02:30:26.420Z,7.29
2022-11-24T02:32:58.808Z,7.32
2022-11-24T02:35:28.556Z,7.32
2022-11-24T02:37:56.395Z,7.35
2022-11-24T02:40:26.908Z,7.33
2022-11-24T02:42:56.631Z,7.30
2022-11-24T02:45:29.048Z,7.35
2022-11-24T02:47:56.994Z,7.32
2022-11-24T02:50:24.819Z,7.31
2022-11-24T02:52:52.636Z,7.27
2022-11-24T02:55:21.388Z,7.28
2022-11-24T02:57:49.197Z,7.29
2022-11-24T03:00:17.533Z,7.25
2022-11-24T03:02:45.426Z,7.24
2022-11-24T03:05:13.516Z,7.27
2022-11-24T03:07:41.397Z,7.28
2022-11-24T03:10:09.557Z,7.26
2022-11-24T03:12:37.363Z,7.24
2022-11-24T03:15:06.103Z,7.26
2022-11-24T03:17:38.541Z,7.22
2022-11-24T03:20:06.727Z,7.24
2022-11-24T03:22:39.091Z,7.19
2022-11-24T03:25:07.424Z,7.19
2022-11-24T03:27:35.316Z,7.19
2022-11-24T03:30:03.227Z,7.20
2022-11-24T03:32:31.104Z,7.23
2022-11-24T03:34:58.873Z,7.22
2022-11-24T03:37:26.799Z,7.26
2022-11-24T03:39:54.659Z,7.20
2022-11-24T03:42:22.584Z,7.21
2022-11-24T03:44:50.377Z,7.25
2022-11-24T03:47:18.103Z,7.26
2022-11-24T03:49:46.260Z,7.28
2022-11-24T03:52:14.006Z,7.28
2022-11-24T03:54:46.488Z,7.24
2022-11-24T03:57:14.589Z,7.28
2022-11-24T03:59:42.309Z,7.28
2022-11-24T04:02:10.239Z,7.29
2022-11-24T04:04:38.101Z,7.28
2022-11-24T04:07:06.003Z,7.28
2022-11-24T04:09:33.855Z,7.30
2022-11-24T04:12:20.267Z,7.34
2022-11-24T04:14:48.176Z,7.39
2022-11-24T04:17:15.919Z,7.41
2022-11-24T04:19:43.740Z,7.42
2022-11-24T04:22:11.646Z,7.43
2022-11-24T04:24:39.374Z,7.45
2022-11-24T04:27:07.157Z,7.46
2022-11-24T04:29:35.096Z,7.47
2022-11-24T04:32:03.134Z,7.46
2022-11-24T04:34:30.894Z,7.44
2022-11-24T04:36:58.924Z,7.43
2022-11-24T04:39:28.565Z,7.42
2022-11-24T04:41:56.757Z,7.42
2022-11-24T04:44:24.639Z,7.40
2022-11-24T04:46:52.667Z,7.43
2022-11-24T04:49:20.539Z,7.45
2022-11-24T04:51:48.415Z,7.46
2022-11-24T04:54:16.639Z,7.44
2022-11-24T04:56:45.230Z,7.44
2022-11-24T04:59:16.272Z,7.42
2022-11-24T05:01:44.763Z,7.40
2022-11-24T05:04:13.436Z,7.39
2022-11-24T05:06:41.380Z,7.38
2022-11-24T05:09:09.162Z,7.36
2022-11-24T05:11:37.116Z,7.37
2022-11-24T05:14:05.020Z,7.36
2022-11-24T05:16:33.069Z,7.36
2022-11-24T05:19:01.062Z,7.34
2022-11-24T05:21:29.192Z,7.36
2022-11-24T05:23:57.175Z,7.36
2022-11-24T05:26:25.024Z,7.31
2022-11-24T05:28:52.807Z,7.32
2022-11-24T05:31:20.855Z,7.33
2022-11-24T05:33:48.671Z,7.35
2022-11-24T05:36:37.248Z,7.35
2022-11-24T05:39:05.215Z,7.34
2022-11-24T05:41:33.149Z,7.32
2022-11-24T05:44:01.094Z,7.34
2022-11-24T05:46:28.931Z,7.31
2022-11-24T05:48:56.762Z,7.32
2022-11-24T05:51:24.592Z,7.33
2022-11-24T05:53:52.544Z,7.36
2022-11-24T05:56:20.614Z,7.38
2022-11-24T05:58:48.406Z,7.39
2022-11-24T06:01:16.139Z,7.37
2022-11-24T06:03:44.058Z,7.37
2022-11-24T06:06:12.179Z,7.32
2022-11-24T06:08:40.283Z,7.30
2022-11-24T06:11:20.233Z,7.30
2022-11-24T06:13:49.705Z,7.25
2022-11-24T06:16:17.708Z,7.25
2022-11-24T06:18:45.664Z,7.28
2022-11-24T06:21:13.670Z,7.28
2022-11-24T06:23:41.889Z,7.31
2022-11-24T06:26:10.341Z,7.34
2022-11-24T06:28:42.873Z,7.38
2022-11-24T06:31:15.497Z,7.37
2022-11-24T06:33:43.459Z,7.39
2022-11-24T06:36:12.214Z,7.38
2022-11-24T06:38:40.061Z,7.33
2022-11-24T06:41:09.656Z,7.30
2022-11-24T06:43:37.889Z,7.35
2022-11-24T06:46:05.940Z,7.36
2022-11-24T06:48:38.476Z,7.39
2022-11-24T06:51:10.313Z,7.39
2022-11-24T06:53:39.257Z,7.40
2022-11-24T06:56:15.300Z,7.42
2022-11-24T06:58:45.737Z,7.43
2022-11-24T07:01:24.269Z,7.46
2022-11-24T07:03:53.195Z,7.48
2022-11-24T07:06:21.388Z,7.80
2022-11-24T07:08:49.253Z,8.00
2022-11-24T07:11:19.190Z,8.12
2022-11-24T07:13:47.362Z,8.14
2022-11-24T07:16:20.601Z,8.31
2022-11-24T07:18:49.296Z,8.23
2022-11-24T07:21:17.481Z,8.11
2022-11-24T07:23:45.325Z,8.06
2022-11-24T07:26:13.385Z,8.01
2022-11-24T07:28:41.443Z,7.98
2022-11-24T07:31:13.680Z,7.98
2022-11-24T07:33:41.659Z,7.96
2022-11-24T07:36:10.015Z,7.96
2022-11-24T07:38:38.002Z,7.90
2022-11-24T07:41:07.657Z,7.93
2022-11-24T07:43:36.408Z,7.92
2022-11-24T07:46:04.536Z,7.91
2022-11-24T07:48:33.267Z,7.95
2022-11-24T07:51:01.734Z,7.97
2022-11-24T07:53:29.906Z,7.97
2022-11-24T07:56:01.875Z,8.00
2022-11-24T07:58:33.841Z,8.01
2022-11-24T08:01:06.320Z,8.03
2022-11-24T08:03:39.530Z,8.02
2022-11-24T08:06:26.062Z,8.03
2022-11-24T08:08:56.248Z,8.04
2022-11-24T08:11:24.078Z,8.08
2022-11-24T08:13:52.047Z,8.10
2022-11-24T08:16:20.637Z,8.16
2022-11-24T08:18:53.111Z,8.19
2022-11-24T08:21:20.999Z,8.22
2022-11-24T08:23:48.898Z,8.23
2022-11-24T08:26:19.086Z,8.27
2022-11-24T08:28:47.478Z,8.32
2022-11-24T08:31:17.237Z,8.33
2022-11-24T08:33:50.059Z,8.38
2022-11-24T08:36:19.300Z,8.47
2022-11-24T08:38:47.481Z,8.52
2022-11-24T08:41:16.331Z,8.49
2022-11-24T08:43:44.206Z,8.52
2022-11-24T08:46:14.962Z,8.47
2022-11-24T08:48:42.897Z,8.43
2022-11-24T08:51:12.782Z,8.38
2022-11-24T08:53:40.947Z,8.38
2022-11-24T08:56:12.410Z,8.33
2022-11-24T08:58:40.596Z,8.27
2022-11-24T09:01:16.118Z,8.26
2022-11-24T09:03:49.904Z,8.18
2022-11-24T09:06:26.250Z,8.15
2022-11-24T09:09:03.846Z,8.08
2022-11-24T09:11:32.047Z,8.02
2022-11-24T09:13:59.975Z,7.96
2022-11-24T09:16:29.819Z,8.00
2022-11-24T09:19:04.112Z,8.00
2022-11-24T09:21:32.681Z,7.96
2022-11-24T09:24:00.610Z,8.07
2022-11-24T09:26:30.537Z,8.21
2022-11-24T09:28:58.813Z,8.36
2022-11-24T09:31:29.346Z,8.58
2022-11-24T09:33:57.457Z,8.84
2022-11-24T09:36:25.537Z,8.96
2022-11-24T09:38:53.714Z,9.09
2022-11-24T09:41:49.779Z,9.23
2022-11-24T09:44:36.029Z,9.27
2022-11-24T09:47:15.469Z,9.27
2022-11-24T09:49:56.503Z,9.54
2022-11-24T09:53:02.393Z,9.61
2022-11-24T09:55:46.489Z,9.82
2022-11-24T09:58:45.048Z,9.92
2022-11-24T10:01:32.148Z,9.91
2022-11-24T10:04:05.966Z,9.96
2022-11-24T10:06:40.070Z,9.89
2022-11-24T10:09:17.180Z,9.76
2022-11-24T10:12:05.980Z,9.65
2022-11-24T10:14:55.087Z,9.70
2022-11-24T10:17:26.303Z,9.78
2022-11-24T10:20:39.274Z,9.65
2022-11-24T10:24:04.541Z,9.73
2022-11-24T10:26:39.179Z,9.79
2022-11-24T10:29:30.284Z,9.96
2022-11-24T10:31:58.254Z,10.04
2022-11-24T10:34:35.801Z,10.17
2022-11-24T10:37:12.990Z,10.05
2022-11-24T10:39:49.738Z,9.81
2022-11-24T10:42:21.780Z,9.70
2022-11-24T10:44:49.721Z,9.39
2022-11-24T10:47:25.364Z,9.26
2022-11-24T10:50:05.872Z,9.20
2022-11-24T10:52:38.185Z,9.13
2022-11-24T10:55:06.452Z,9.31
2022-11-24T10:57:35.872Z,9.32
2022-11-24T11:00:24.658Z,9.35
2022-11-24T11:02:53.338Z,9.41
2022-11-24T11:05:28.576Z,9.72
2022-11-24T11:08:15.309Z,9.69
2022-11-24T11:10:43.976Z,9.54
2022-11-24T11:13:25.526Z,9.83
2022-11-24T11:15:53.461Z,10.09
2022-11-24T11:18:21.448Z,10.55
2022-11-24T11:20:56.590Z,10.90
2022-11-24T11:23:35.056Z,10.92
2022-11-24T11:26:33.140Z,11.20
2022-11-24T11:34:51.715Z,10.10
2022-11-24T11:37:19.879Z,9.95
2022-11-24T11:39:49.344Z,9.96
2022-11-24T11:43:00.033Z,9.84
2022-11-24T11:45:21.649Z,9.85
2022-11-24T11:47:56.956Z,9.83
2022-11-24T11:50:42.923Z,9.76
2022-11-24T11:53:25.845Z,9.69
2022-11-24T11:56:17.643Z,9.68
2022-11-24T11:59:04.259Z,9.66
2022-11-24T12:01:44.049Z,9.68
2022-11-24T12:04:17.977Z,9.74
2022-11-24T12:07:01.184Z,9.74
2022-11-24T12:09:36.021Z,9.68
2022-11-24T12:12:34.031Z,9.68
2022-11-24T12:15:13.640Z,9.61
2022-11-24T12:18:13.549Z,9.90
2022-11-24T12:21:21.360Z,10.05
2022-11-24T12:24:19.958Z,9.98
2022-11-24T12:26:58.154Z,10.01
2022-11-24T12:29:44.136Z,9.92
2022-11-24T12:32:42.638Z,9.81
2022-11-24T12:35:20.125Z,9.73
2022-11-24T12:38:12.636Z,9.77
2022-11-24T12:41:39.590Z,9.85
2022-11-24T12:44:00.300Z,9.99
2022-11-24T12:46:48.201Z,10.15
2022-11-24T12:49:28.690Z,10.24
2022-11-24T12:52:00.913Z,10.30
2022-11-24T12:54:39.117Z,10.37
2022-11-24T12:57:08.503Z,10.51
2022-11-24T13:00:00.871Z,10.62
2022-11-24T13:02:50.786Z,10.53
2022-11-24T13:05:39.535Z,10.50
2022-11-24T13:08:07.362Z,10.49
2022-11-24T13:10:57.107Z,10.48
2022-11-24T13:13:29.009Z,10.43
2022-11-24T13:17:13.015Z,10.41
2022-11-24T13:18:45.162Z,10.22
2022-11-24T13:21:42.573Z,10.17
2022-11-24T13:24:20.280Z,10.03
2022-11-24T13:27:20.948Z,9.98
2022-11-24T13:29:49.998Z,9.99
2022-11-24T13:32:20.619Z,10.03
2022-11-24T13:34:55.952Z,10.17
2022-11-24T13:37:31.681Z,10.27
2022-11-24T13:40:13.354Z,10.37
2022-11-24T13:42:56.534Z,10.44
2022-11-24T13:45:50.307Z,10.43
2022-11-24T13:48:21.418Z,10.38
2022-11-24T13:50:55.573Z,10.35
2022-11-24T13:53:36.177Z,10.34
2022-11-24T13:56:03.841Z,10.26
2022-11-24T13:58:37.266Z,10.20
2022-11-24T14:01:33.295Z,10.14
2022-11-24T14:04:30.011Z,10.08
2022-11-24T14:07:07.423Z,10.02
2022-11-24T14:09:42.380Z,10.01
2022-11-24T14:12:19.071Z,10.03
2022-11-24T14:14:48.267Z,10.05
2022-11-24T14:17:29.550Z,10.08
2022-11-24T14:19:58.125Z,10.04
2022-11-24T14:22:32.606Z,10.06
2022-11-24T14:25:01.745Z,10.08
2022-11-24T14:27:37.408Z,10.08
2022-11-24T14:30:18.223Z,10.10
2022-11-24T14:33:10.795Z,10.10
2022-11-24T14:35:44.530Z,10.12
2022-11-24T14:38:13.055Z,10.11
2022-11-24T14:40:44.812Z,10.08
2022-11-24T14:43:20.159Z,10.07
2022-11-24T14:46:00.405Z,10.07
2022-11-24T14:48:32.921Z,10.06
2022-11-24T14:51:30.404Z,10.03
2022-11-24T14:54:00.143Z,10.03
2022-11-24T14:56:29.993Z,9.97
2022-11-24T14:58:58.349Z,9.96
2022-11-24T15:01:28.865Z,9.93
2022-11-24T15:04:26.948Z,9.86
2022-11-24T15:07:14.417Z,9.83
2022-11-24T15:10:01.955Z,9.73
2022-11-24T15:12:35.086Z,9.63
2022-11-24T15:15:03.385Z,9.55
2022-11-24T15:17:31.594Z,9.49
2022-11-24T15:20:02.368Z,9.44
2022-11-24T15:22:43.525Z,9.39
2022-11-24T15:25:28.604Z,9.38
2022-11-24T15:27:56.662Z,9.32
2022-11-24T15:30:24.521Z,9.24
2022-11-24T15:32:59.137Z,9.17
2022-11-24T15:35:28.176Z,9.14
2022-11-24T15:37:56.005Z,9.05
2022-11-24T15:40:23.833Z,8.94
2022-11-24T15:42:56.221Z,8.82
2022-11-24T15:45:25.667Z,8.77
2022-11-24T15:47:53.768Z,8.71
2022-11-24T15:50:21.714Z,8.67
2022-11-24T15:52:49.526Z,8.61
2022-11-24T15:55:21.924Z,8.56
2022-11-24T15:57:50.151Z,8.50
2022-11-24T16:00:19.298Z,8.51
2022-11-24T16:02:47.147Z,8.50
2022-11-24T16:05:15.162Z,8.50
2022-11-24T16:07:43.100Z,8.54
2022-11-24T16:10:39.953Z,8.64
2022-11-24T16:13:07.747Z,8.57
2022-11-24T16:15:35.605Z,8.50
2022-11-24T16:18:04.306Z,8.42
2022-11-24T16:20:37.082Z,8.39
2022-11-24T16:23:05.301Z,8.35
2022-11-24T16:25:33.308Z,8.28
2022-11-24T16:28:01.093Z,8.20
2022-11-24T16:30:28.919Z,8.19
2022-11-24T16:32:56.729Z,8.12
2022-11-24T16:35:24.561Z,8.09
2022-11-24T16:37:52.895Z,8.03
2022-11-24T16:40:20.888Z,8.00
2022-11-24T16:42:48.770Z,7.90
2022-11-24T16:45:16.651Z,7.83
2022-11-24T16:47:44.463Z,7.78
2022-11-24T16:50:12.622Z,7.69
2022-11-24T16:52:40.494Z,7.61
2022-11-24T16:55:09.549Z,7.60
2022-11-24T16:57:38.082Z,7.52
2022-11-24T17:00:07.018Z,7.49
2022-11-24T17:02:35.085Z,7.45
2022-11-24T17:05:03.339Z,7.45
2022-11-24T17:07:31.196Z,7.44
2022-11-24T17:10:01.050Z,7.44
2022-11-24T17:12:28.924Z,7.40
2022-11-24T17:15:24.337Z,7.31
2022-11-24T17:18:08.455Z,7.30
2022-11-24T17:20:33.615Z,7.26
2022-11-24T17:23:01.448Z,7.21
2022-11-24T17:25:29.255Z,7.19
2022-11-24T17:27:57.042Z,7.18
2022-11-24T17:30:24.881Z,7.12
2022-11-24T17:32:56.723Z,7.08
2022-11-24T17:35:24.894Z,7.09
2022-11-24T17:37:52.672Z,7.02
2022-11-24T17:40:28.259Z,6.97
2022-11-24T17:43:01.202Z,6.94
2022-11-24T17:45:29.558Z,6.92
2022-11-24T17:47:58.384Z,7.00
2022-11-24T17:50:26.717Z,7.03
2022-11-24T17:52:55.229Z,7.07
2022-11-24T17:55:23.579Z,7.01
2022-11-24T17:57:51.744Z,6.94
2022-11-24T18:00:19.812Z,6.95
2022-11-24T18:02:47.651Z,6.97
2022-11-24T18:05:15.572Z,6.99
2022-11-24T18:07:43.380Z,7.00
2022-11-24T18:10:11.602Z,6.99
2022-11-24T18:12:39.333Z,7.00
2022-11-24T18:15:07.640Z,7.00
2022-11-24T18:17:35.454Z,7.03
2022-11-24T18:20:03.282Z,7.03
2022-11-24T18:22:57.697Z,6.99
2022-11-24T18:25:18.865Z,6.99
2022-11-24T18:27:46.663Z,6.89
2022-11-24T18:30:14.766Z,6.81
2022-11-24T18:32:42.706Z,6.80
2022-11-24T18:35:10.848Z,6.83
2022-11-24T18:37:44.568Z,6.85
2022-11-24T18:40:12.761Z,6.85
2022-11-24T18:42:40.695Z,6.87
2022-11-24T18:45:09.164Z,6.91
2022-11-24T18:47:36.919Z,6.87
2022-11-24T18:50:05.059Z,6.76
2022-11-24T18:52:32.839Z,6.69
2022-11-24T18:55:05.064Z,6.63
2022-11-24T18:57:32.935Z,6.53
2022-11-24T19:00:00.746Z,6.47
2022-11-24T19:02:28.694Z,6.51
2022-11-24T19:04:56.548Z,6.56
2022-11-24T19:07:24.438Z,6.60
2022-11-24T19:09:52.271Z,6.60
2022-11-24T19:12:20.390Z,6.61
2022-11-24T19:14:48.202Z,6.60
2022-11-24T19:17:16.175Z,6.55
2022-11-24T19:19:44.041Z,6.48
2022-11-24T19:22:11.869Z,6.45
2022-11-24T19:24:39.947Z,6.41
2022-11-24T19:27:08.527Z,6.33
2022-11-24T19:29:41.714Z,6.29
2022-11-24T19:32:10.958Z,6.28
2022-11-24T19:34:40.161Z,6.22
2022-11-24T19:37:07.999Z,6.21
2022-11-24T19:39:35.804Z,6.17
2022-11-24T19:42:05.855Z,6.17
2022-11-24T19:44:34.012Z,6.14
2022-11-24T19:47:02.020Z,6.10
2022-11-24T19:49:29.814Z,6.09
2022-11-24T19:51:57.633Z,6.10
2022-11-24T19:54:26.110Z,6.06
2022-11-24T19:56:54.371Z,6.03
2022-11-24T19:59:24.603Z,5.99
2022-11-24T20:01:52.651Z,5.93
2022-11-24T20:04:21.563Z,5.88
2022-11-24T20:06:49.349Z,5.87
2022-11-24T20:09:17.992Z,5.80
2022-11-24T20:11:45.970Z,5.73
2022-11-24T20:14:14.637Z,5.70
2022-11-24T20:16:42.705Z,5.68
2022-11-24T20:19:14.314Z,5.63
2022-11-24T20:21:42.876Z,5.62
2022-11-24T20:24:17.791Z,5.59
2022-11-24T20:26:50.778Z,5.54
2022-11-24T20:29:18.991Z,5.49
2022-11-24T20:31:48.288Z,5.45
2022-11-24T20:34:16.327Z,5.45
2022-11-24T20:36:45.084Z,5.44
2022-11-24T20:39:18.092Z,5.38
2022-11-24T20:41:46.033Z,5.35
2022-11-24T20:44:16.250Z,5.34
2022-11-24T20:46:44.816Z,5.35
2022-11-24T20:49:14.932Z,5.36
2022-11-24T20:51:48.154Z,5.34
2022-11-24T20:54:17.424Z,5.30
2022-11-24T20:56:45.341Z,5.27
2022-11-24T20:59:18.364Z,5.21
2022-11-24T21:01:47.100Z,5.22
2022-11-24T21:04:20.205Z,5.18
2022-11-24T21:06:48.204Z,5.15
2022-11-24T21:09:16.097Z,5.14
2022-11-24T21:11:43.884Z,5.11
2022-11-24T21:14:11.992Z,5.06
2022-11-24T21:16:40.947Z,5.03
2022-11-24T21:19:13.360Z,4.99
2022-11-24T21:21:42.182Z,4.98
2022-11-24T21:24:17.597Z,4.96
2022-11-24T21:26:48.541Z,4.91
2022-11-24T21:29:18.396Z,4.88
2022-11-24T21:31:46.217Z,4.88
2022-11-24T21:34:15.981Z,4.87
2022-11-24T21:36:46.004Z,4.83
2022-11-24T21:39:17.555Z,4.82
2022-11-24T21:41:45.552Z,4.80
2022-11-24T21:44:14.419Z,4.79
2022-11-24T21:46:48.253Z,4.79
2022-11-24T21:49:18.893Z,4.75
2022-11-24T21:51:46.666Z,4.72
2022-11-24T21:54:14.391Z,4.68
2022-11-24T21:56:42.263Z,4.70
2022-11-24T21:59:10.085Z,4.69
2022-11-24T22:01:37.846Z,4.69
2022-11-24T22:04:05.888Z,4.68
2022-11-24T22:06:34.369Z,4.67
2022-11-24T22:09:02.425Z,4.66
2022-11-24T22:11:30.197Z,4.69
2022-11-24T22:13:57.920Z,4.70
2022-11-24T22:16:25.929Z,4.69
2022-11-24T22:18:53.812Z,4.68
2022-11-24T22:21:31.107Z,4.66
2022-11-24T22:23:58.995Z,4.67
2022-11-24T22:26:27.325Z,4.67
2022-11-24T22:28:55.407Z,4.66
2022-11-24T22:31:24.686Z,4.63
2022-11-24T22:33:52.927Z,4.63
2022-11-24T22:36:22.324Z,4.59
2022-11-24T22:38:54.745Z,4.62
2022-11-24T22:41:22.491Z,4.65
2022-11-24T22:43:50.436Z,4.67
2022-11-24T22:46:22.972Z,4.64
2022-11-24T22:48:51.556Z,4.63
2022-11-24T22:51:20.951Z,4.62
2022-11-24T22:53:49.942Z,4.59
2022-11-24T22:56:18.035Z,4.64
2022-11-24T22:58:45.909Z,4.63
2022-11-24T23:01:18.565Z,4.59
2022-11-24T23:03:46.510Z,4.66
2022-11-24T23:06:18.540Z,4.68
2022-11-24T23:08:46.248Z,4.68
2022-11-24T23:11:15.601Z,4.70
2022-11-24T23:13:43.504Z,4.74
2022-11-24T23:16:18.278Z,4.75
2022-11-24T23:18:51.080Z,4.78
2022-11-24T23:21:22.185Z,4.81
2022-11-24T23:23:50.230Z,4.80
2022-11-24T23:26:25.321Z,4.79
2022-11-24T23:28:53.204Z,4.79
2022-11-24T23:31:22.567Z,4.79
2022-11-24T23:33:50.327Z,4.80
2022-11-24T23:36:19.537Z,4.80
2022-11-24T23:38:47.476Z,4.80
2022-11-24T23:41:17.055Z,4.77
2022-11-24T23:43:44.866Z,4.74
2022-11-24T23:46:14.554Z,4.75
2022-11-24T23:48:42.512Z,4.71
2022-11-24T23:51:15.073Z,4.67
2022-11-24T23:53:44.129Z,4.66
2022-11-24T23:56:24.838Z,4.66
2022-11-24T23:58:52.640Z,4.65
